sensor_id;sensor_type;location;lat;lon;timestamp;pressure;altitude;pressure_sealevel;temperature;humidity
21826;BME280;11075;47.944;11.776;2022-08-21T00:00:25;94815.19;;;21.13;30.60
21826;BME280;11075;47.944;11.776;2022-08-21T00:02:59;94818.84;;;23.34;27.50
21826;BME280;11075;47.944;11.776;2022-08-21T00:05:28;94824.13;;;23.48;27.27
21826;BME280;11075;47.944;11.776;2022-08-21T00:07:55;94815.06;;;24.34;26.35
21826;BME280;11075;47.944;11.776;2022-08-21T00:10:22;94782.50;;;21.77;29.51
21826;BME280;11075;47.944;11.776;2022-08-21T00:12:49;94800.94;;;23.49;27.33
21826;BME280;11075;47.944;11.776;2022-08-21T00:15:22;94810.47;;;24.83;25.57
21826;BME280;11075;47.944;11.776;2022-08-21T00:17:49;94750.81;;;21.39;29.53
21826;BME280;11075;47.944;11.776;2022-08-21T00:20:17;94798.13;;;23.96;26.60
21826;BME280;11075;47.944;11.776;2022-08-21T00:22:44;94797.06;;;24.29;25.98
21826;BME280;11075;47.944;11.776;2022-08-21T00:25:12;94778.53;;;23.27;26.77
21826;BME280;11075;47.944;11.776;2022-08-21T00:27:40;94791.47;;;23.73;26.33
21826;BME280;11075;47.944;11.776;2022-08-21T00:30:10;94790.84;;;24.45;25.23
21826;BME280;11075;47.944;11.776;2022-08-21T00:32:49;94781.47;;;22.90;26.93
21826;BME280;11075;47.944;11.776;2022-08-21T00:35:18;94779.69;;;21.47;29.42
21826;BME280;11075;47.944;11.776;2022-08-21T00:37:45;94809.88;;;23.76;26.14
21826;BME280;11075;47.944;11.776;2022-08-21T00:40:17;94799.38;;;23.71;26.01
21826;BME280;11075;47.944;11.776;2022-08-21T00:42:44;94794.34;;;23.43;26.46
21826;BME280;11075;47.944;11.776;2022-08-21T00:45:20;94793.25;;;23.83;25.92
21826;BME280;11075;47.944;11.776;2022-08-21T00:47:48;94775.66;;;22.27;27.80
21826;BME280;11075;47.944;11.776;2022-08-21T00:50:15;94778.69;;;22.36;27.91
21826;BME280;11075;47.944;11.776;2022-08-21T00:52:49;94796.38;;;23.62;25.84
21826;BME280;11075;47.944;11.776;2022-08-21T00:55:19;94791.31;;;21.58;28.41
21826;BME280;11075;47.944;11.776;2022-08-21T00:57:51;94799.69;;;22.80;27.00
21826;BME280;11075;47.944;11.776;2022-08-21T01:00:27;94791.63;;;22.66;27.15
21826;BME280;11075;47.944;11.776;2022-08-21T01:02:56;94800.84;;;23.76;25.46
21826;BME280;11075;47.944;11.776;2022-08-21T01:05:24;94795.66;;;24.77;24.62
21826;BME280;11075;47.944;11.776;2022-08-21T01:07:52;94768.69;;;23.30;26.17
21826;BME280;11075;47.944;11.776;2022-08-21T01:10:19;94757.13;;;21.28;28.94
21826;BME280;11075;47.944;11.776;2022-08-21T01:12:55;94791.34;;;23.80;25.75
21826;BME280;11075;47.944;11.776;2022-08-21T01:15:25;94765.81;;;21.65;28.68
21826;BME280;11075;47.944;11.776;2022-08-21T01:17:54;94772.66;;;22.75;27.14
21826;BME280;11075;47.944;11.776;2022-08-21T01:20:21;94731.84;;;20.62;29.38
21826;BME280;11075;47.944;11.776;2022-08-21T01:22:59;94789.63;;;23.43;25.83
21826;BME280;11075;47.944;11.776;2022-08-21T01:25:26;94772.94;;;22.84;26.62
21826;BME280;11075;47.944;11.776;2022-08-21T01:27:54;94738.41;;;20.75;28.65
21826;BME280;11075;47.944;11.776;2022-08-21T01:30:26;94775.56;;;22.91;26.73
21826;BME280;11075;47.944;11.776;2022-08-21T01:32:54;94777.50;;;21.27;28.35
21826;BME280;11075;47.944;11.776;2022-08-21T01:35:22;94798.91;;;23.30;25.90
21826;BME280;11075;47.944;11.776;2022-08-21T01:37:49;94758.94;;;21.46;28.47
21826;BME280;11075;47.944;11.776;2022-08-21T01:40:17;94793.88;;;23.25;26.04
21826;BME280;11075;47.944;11.776;2022-08-21T01:42:45;94760.38;;;21.16;27.84
21826;BME280;11075;47.944;11.776;2022-08-21T01:45:13;94776.97;;;21.84;27.44
21826;BME280;11075;47.944;11.776;2022-08-21T01:47:40;94792.75;;;23.69;24.80
21826;BME280;11075;47.944;11.776;2022-08-21T01:50:12;94785.38;;;22.92;25.71
21826;BME280;11075;47.944;11.776;2022-08-21T01:52:39;94730.22;;;20.06;29.48
21826;BME280;11075;47.944;11.776;2022-08-21T01:55:08;94783.50;;;22.28;26.42
21826;BME280;11075;47.944;11.776;2022-08-21T01:57:35;94797.81;;;23.70;24.85
21826;BME280;11075;47.944;11.776;2022-08-21T02:00:05;94702.41;;;18.81;31.33
21826;BME280;11075;47.944;11.776;2022-08-21T02:02:38;94775.19;;;22.35;26.62
21826;BME280;11075;47.944;11.776;2022-08-21T02:05:06;94738.88;;;20.63;28.89
21826;BME280;11075;47.944;11.776;2022-08-21T02:07:48;94741.31;;;20.50;28.75
21826;BME280;11075;47.944;11.776;2022-08-21T02:10:19;94745.84;;;20.75;28.78
21826;BME280;11075;47.944;11.776;2022-08-21T02:12:46;94733.91;;;20.47;28.97
21826;BME280;11075;47.944;11.776;2022-08-21T02:15:14;94777.59;;;22.87;25.90
21826;BME280;11075;47.944;11.776;2022-08-21T02:17:48;94755.31;;;22.24;26.16
21826;BME280;11075;47.944;11.776;2022-08-21T02:20:20;94709.72;;;19.48;30.23
21826;BME280;11075;47.944;11.776;2022-08-21T02:22:48;94762.88;;;21.45;27.18
21826;BME280;11075;47.944;11.776;2022-08-21T02:25:17;94762.19;;;20.89;28.76
21826;BME280;11075;47.944;11.776;2022-08-21T02:27:45;94779.38;;;22.13;27.00
21826;BME280;11075;47.944;11.776;2022-08-21T02:30:25;94752.81;;;20.86;28.19
21826;BME280;11075;47.944;11.776;2022-08-21T02:32:53;94765.94;;;21.88;27.03
21826;BME280;11075;47.944;11.776;2022-08-21T02:35:20;94739.13;;;20.86;27.93
21826;BME280;11075;47.944;11.776;2022-08-21T02:37:55;94710.53;;;18.31;32.12
21826;BME280;11075;47.944;11.776;2022-08-21T02:40:26;94759.25;;;21.55;27.39
21826;BME280;11075;47.944;11.776;2022-08-21T02:42:53;94752.63;;;20.56;29.38
21826;BME280;11075;47.944;11.776;2022-08-21T02:45:20;94754.09;;;19.94;29.89
21826;BME280;11075;47.944;11.776;2022-08-21T02:47:49;94758.47;;;21.54;27.86
21826;BME280;11075;47.944;11.776;2022-08-21T02:50:20;94744.00;;;19.74;30.63
21826;BME280;11075;47.944;11.776;2022-08-21T02:52:47;94754.88;;;21.20;28.20
21826;BME280;11075;47.944;11.776;2022-08-21T02:55:22;94737.63;;;20.09;29.78
21826;BME280;11075;47.944;11.776;2022-08-21T02:57:49;94737.81;;;19.55;30.05
21826;BME280;11075;47.944;11.776;2022-08-21T03:00:16;94766.94;;;20.81;28.76
21826;BME280;11075;47.944;11.776;2022-08-21T03:02:43;94776.72;;;22.06;26.39
21826;BME280;11075;47.944;11.776;2022-08-21T03:05:13;94771.28;;;22.90;24.98
21826;BME280;11075;47.944;11.776;2022-08-21T03:07:43;94721.50;;;19.13;30.44
21826;BME280;11075;47.944;11.776;2022-08-21T03:10:10;94740.75;;;20.11;29.23
21826;BME280;11075;47.944;11.776;2022-08-21T03:12:37;94743.16;;;20.67;28.40
21826;BME280;11075;47.944;11.776;2022-08-21T03:15:06;94749.31;;;20.82;28.04
21826;BME280;11075;47.944;11.776;2022-08-21T03:17:34;94751.50;;;21.46;26.81
21826;BME280;11075;47.944;11.776;2022-08-21T03:20:01;94730.78;;;21.01;27.69
21826;BME280;11075;47.944;11.776;2022-08-21T03:22:29;94758.06;;;21.56;27.03
21826;BME280;11075;47.944;11.776;2022-08-21T03:24:57;94749.84;;;21.11;27.55
21826;BME280;11075;47.944;11.776;2022-08-21T03:27:27;94777.41;;;22.71;25.13
21826;BME280;11075;47.944;11.776;2022-08-21T03:29:55;94744.81;;;21.06;27.81
21826;BME280;11075;47.944;11.776;2022-08-21T03:32:22;94751.66;;;21.28;27.40
21826;BME280;11075;47.944;11.776;2022-08-21T03:34:49;94763.38;;;21.70;26.65
21826;BME280;11075;47.944;11.776;2022-08-21T03:37:16;94726.25;;;20.14;28.40
21826;BME280;11075;47.944;11.776;2022-08-21T03:39:44;94740.31;;;20.85;27.86
21826;BME280;11075;47.944;11.776;2022-08-21T03:42:11;94760.00;;;21.59;26.74
21826;BME280;11075;47.944;11.776;2022-08-21T03:44:38;94777.38;;;22.47;25.91
21826;BME280;11075;47.944;11.776;2022-08-21T03:47:06;94743.59;;;20.59;28.29
21826;BME280;11075;47.944;11.776;2022-08-21T03:49:33;94718.75;;;19.23;29.46
21826;BME280;11075;47.944;11.776;2022-08-21T03:52:00;94748.94;;;20.11;28.62
21826;BME280;11075;47.944;11.776;2022-08-21T03:54:27;94790.75;;;22.11;25.93
21826;BME280;11075;47.944;11.776;2022-08-21T03:56:54;94771.19;;;22.40;25.36
21826;BME280;11075;47.944;11.776;2022-08-21T03:59:22;94761.09;;;21.65;26.32
21826;BME280;11075;47.944;11.776;2022-08-21T04:01:58;94737.47;;;19.39;29.39
21826;BME280;11075;47.944;11.776;2022-08-21T04:04:26;94732.44;;;18.95;29.86
21826;BME280;11075;47.944;11.776;2022-08-21T04:06:55;94771.31;;;20.64;27.67
21826;BME280;11075;47.944;11.776;2022-08-21T04:09:23;94750.22;;;19.78;28.34
21826;BME280;11075;47.944;11.776;2022-08-21T04:11:50;94793.38;;;22.52;25.28
21826;BME280;11075;47.944;11.776;2022-08-21T04:14:17;94781.25;;;22.19;25.78
21826;BME280;11075;47.944;11.776;2022-08-21T04:16:44;94774.63;;;21.79;25.96
21826;BME280;11075;47.944;11.776;2022-08-21T04:19:12;94775.28;;;21.94;26.04
21826;BME280;11075;47.944;11.776;2022-08-21T04:21:42;94752.66;;;20.49;27.22
21826;BME280;11075;47.944;11.776;2022-08-21T04:24:10;94768.53;;;21.23;26.42
21826;BME280;11075;47.944;11.776;2022-08-21T04:26:37;94784.13;;;21.30;26.32
21826;BME280;11075;47.944;11.776;2022-08-21T04:29:06;94753.75;;;19.82;27.55
21826;BME280;11075;47.944;11.776;2022-08-21T04:31:36;94751.91;;;19.36;29.03
21826;BME280;11075;47.944;11.776;2022-08-21T04:34:05;94791.16;;;21.72;25.78
21826;BME280;11075;47.944;11.776;2022-08-21T04:36:33;94805.63;;;22.44;24.83
21826;BME280;11075;47.944;11.776;2022-08-21T04:39:00;94735.53;;;19.00;29.14
21826;BME280;11075;47.944;11.776;2022-08-21T04:41:28;94757.75;;;19.42;28.84
21826;BME280;11075;47.944;11.776;2022-08-21T04:43:56;94781.22;;;20.44;27.69
21826;BME280;11075;47.944;11.776;2022-08-21T04:46:23;94795.56;;;21.21;26.72
21826;BME280;11075;47.944;11.776;2022-08-21T04:48:50;94771.78;;;19.54;28.69
21826;BME280;11075;47.944;11.776;2022-08-21T04:51:20;94783.25;;;20.33;27.35
21826;BME280;11075;47.944;11.776;2022-08-21T04:53:56;94778.34;;;19.89;28.31
21826;BME280;11075;47.944;11.776;2022-08-21T04:56:31;94791.28;;;20.61;26.80
21826;BME280;11075;47.944;11.776;2022-08-21T04:59:01;94788.13;;;20.63;27.10
21826;BME280;11075;47.944;11.776;2022-08-21T05:01:35;94780.50;;;20.29;27.39
21826;BME280;11075;47.944;11.776;2022-08-21T05:04:04;94777.47;;;20.10;27.64
21826;BME280;11075;47.944;11.776;2022-08-21T05:06:35;94791.81;;;21.01;26.70
21826;BME280;11075;47.944;11.776;2022-08-21T05:09:04;94769.06;;;19.15;29.48
21826;BME280;11075;47.944;11.776;2022-08-21T05:11:31;94820.19;;;22.41;25.24
21826;BME280;11075;47.944;11.776;2022-08-21T05:13:59;94805.53;;;22.21;25.60
21826;BME280;11075;47.944;11.776;2022-08-21T05:16:26;94814.06;;;22.87;24.54
21826;BME280;11075;47.944;11.776;2022-08-21T05:19:06;94764.31;;;20.60;27.81
21826;BME280;11075;47.944;11.776;2022-08-21T05:21:39;94807.09;;;22.83;25.33
21826;BME280;11075;47.944;11.776;2022-08-21T05:24:06;94771.81;;;21.90;26.46
21826;BME280;11075;47.944;11.776;2022-08-21T05:26:33;94762.63;;;20.77;28.08
21826;BME280;11075;47.944;11.776;2022-08-21T05:29:11;94811.94;;;23.72;25.23
21826;BME280;11075;47.944;11.776;2022-08-21T05:31:39;94792.28;;;22.73;25.82
21826;BME280;11075;47.944;11.776;2022-08-21T05:34:06;94800.19;;;22.98;25.90
21826;BME280;11075;47.944;11.776;2022-08-21T05:36:32;94814.28;;;23.94;24.95
21826;BME280;11075;47.944;11.776;2022-08-21T05:38:59;94790.97;;;22.85;26.44
21826;BME280;11075;47.944;11.776;2022-08-21T05:41:26;94799.84;;;23.43;25.39
21826;BME280;11075;47.944;11.776;2022-08-21T05:43:53;94800.78;;;23.79;25.56
21826;BME280;11075;47.944;11.776;2022-08-21T05:46:20;94805.38;;;24.06;25.14
21826;BME280;11075;47.944;11.776;2022-08-21T05:48:47;94793.81;;;23.95;25.89
21826;BME280;11075;47.944;11.776;2022-08-21T05:51:15;94791.56;;;24.09;25.60
21826;BME280;11075;47.944;11.776;2022-08-21T05:53:43;94808.25;;;24.94;24.66
21826;BME280;11075;47.944;11.776;2022-08-21T05:56:11;94808.81;;;25.22;24.53
21826;BME280;11075;47.944;11.776;2022-08-21T05:58:38;94798.63;;;25.02;25.00
21826;BME280;11075;47.944;11.776;2022-08-21T06:01:07;94807.59;;;26.00;24.16
21826;BME280;11075;47.944;11.776;2022-08-21T06:03:38;94816.84;;;25.94;23.59
21826;BME280;11075;47.944;11.776;2022-08-21T06:06:06;94807.69;;;25.97;23.92
21826;BME280;11075;47.944;11.776;2022-08-21T06:08:33;94798.88;;;26.02;24.62
21826;BME280;11075;47.944;11.776;2022-08-21T06:11:01;94799.06;;;25.95;24.39
21826;BME280;11075;47.944;11.776;2022-08-21T06:13:28;94773.31;;;24.55;26.34
21826;BME280;11075;47.944;11.776;2022-08-21T06:16:21;94777.97;;;24.22;27.23
21826;BME280;11075;47.944;11.776;2022-08-21T06:18:49;94825.22;;;26.19;23.87
21826;BME280;11075;47.944;11.776;2022-08-21T06:21:16;94804.09;;;26.13;24.28
21826;BME280;11075;47.944;11.776;2022-08-21T06:23:43;94797.00;;;25.83;24.69
21826;BME280;11075;47.944;11.776;2022-08-21T06:26:12;94814.91;;;27.63;23.34
21826;BME280;11075;47.944;11.776;2022-08-21T06:28:40;94801.34;;;26.67;23.77
21826;BME280;11075;47.944;11.776;2022-08-21T06:31:18;94805.88;;;26.74;23.33
21826;BME280;11075;47.944;11.776;2022-08-21T06:33:46;94800.72;;;27.74;23.50
21826;BME280;11075;47.944;11.776;2022-08-21T06:36:14;94782.22;;;26.06;24.63
21826;BME280;11075;47.944;11.776;2022-08-21T06:38:41;94771.53;;;26.20;25.14
21826;BME280;11075;47.944;11.776;2022-08-21T06:41:16;94811.53;;;25.70;24.24
21826;BME280;11075;47.944;11.776;2022-08-21T06:43:50;94804.09;;;28.56;22.84
21826;BME280;11075;47.944;11.776;2022-08-21T06:46:17;94776.06;;;24.91;24.70
21826;BME280;11075;47.944;11.776;2022-08-21T06:48:44;94798.38;;;26.99;23.09
21826;BME280;11075;47.944;11.776;2022-08-21T06:51:10;94772.22;;;25.66;25.45
21826;BME280;11075;47.944;11.776;2022-08-21T06:53:37;94801.44;;;26.09;23.37
21826;BME280;11075;47.944;11.776;2022-08-21T06:56:04;94806.78;;;26.96;23.54
21826;BME280;11075;47.944;11.776;2022-08-21T06:58:32;94783.19;;;26.41;23.87
21826;BME280;11075;47.944;11.776;2022-08-21T07:01:00;94795.84;;;26.25;24.25
21826;BME280;11075;47.944;11.776;2022-08-21T07:03:30;94816.84;;;28.32;22.97
21826;BME280;11075;47.944;11.776;2022-08-21T07:05:58;94802.06;;;27.56;23.58
21826;BME280;11075;47.944;11.776;2022-08-21T07:08:26;94785.28;;;26.37;23.96
21826;BME280;11075;47.944;11.776;2022-08-21T07:10:56;94797.25;;;26.72;23.85
21826;BME280;11075;47.944;11.776;2022-08-21T07:13:23;94813.91;;;27.57;22.93
21826;BME280;11075;47.944;11.776;2022-08-21T07:15:50;94768.81;;;25.46;25.05
21826;BME280;11075;47.944;11.776;2022-08-21T07:18:17;94788.63;;;26.70;24.82
21826;BME280;11075;47.944;11.776;2022-08-21T07:20:45;94778.72;;;26.18;25.06
21826;BME280;11075;47.944;11.776;2022-08-21T07:23:37;94759.69;;;24.48;25.88
21826;BME280;11075;47.944;11.776;2022-08-21T07:26:04;94754.50;;;24.34;26.37
21826;BME280;11075;47.944;11.776;2022-08-21T07:28:31;94802.44;;;27.46;22.93
21826;BME280;11075;47.944;11.776;2022-08-21T07:30:59;94809.00;;;29.91;21.56
21826;BME280;11075;47.944;11.776;2022-08-21T07:33:29;94758.69;;;28.32;23.78
21826;BME280;11075;47.944;11.776;2022-08-21T07:35:56;94751.72;;;26.51;24.77
21826;BME280;11075;47.944;11.776;2022-08-21T07:38:24;94802.59;;;29.35;21.29
21826;BME280;11075;47.944;11.776;2022-08-21T07:40:52;94754.91;;;25.04;24.49
21826;BME280;11075;47.944;11.776;2022-08-21T07:43:21;94784.53;;;28.07;22.62
21826;BME280;11075;47.944;11.776;2022-08-21T07:45:48;94798.28;;;29.34;20.84
21826;BME280;11075;47.944;11.776;2022-08-21T07:48:15;94761.00;;;28.33;23.33
21826;BME280;11075;47.944;11.776;2022-08-21T07:50:43;94759.06;;;25.87;24.71
21826;BME280;11075;47.944;11.776;2022-08-21T07:53:10;94774.09;;;25.24;23.81
21826;BME280;11075;47.944;11.776;2022-08-21T07:55:36;94760.13;;;23.67;24.64
21826;BME280;11075;47.944;11.776;2022-08-21T07:58:03;94774.16;;;26.65;23.24
21826;BME280;11075;47.944;11.776;2022-08-21T08:00:30;94742.81;;;24.10;24.64
21826;BME280;11075;47.944;11.776;2022-08-21T08:02:57;94767.78;;;24.91;23.32
21826;BME280;11075;47.944;11.776;2022-08-21T08:05:27;94780.91;;;27.75;21.93
21826;BME280;11075;47.944;11.776;2022-08-21T08:07:55;94792.97;;;28.78;21.04
21826;BME280;11075;47.944;11.776;2022-08-21T08:10:22;94754.41;;;25.84;23.60
21826;BME280;11075;47.944;11.776;2022-08-21T08:12:49;94748.53;;;28.91;22.54
21826;BME280;11075;47.944;11.776;2022-08-21T08:15:20;94749.75;;;27.02;23.17
21826;BME280;11075;47.944;11.776;2022-08-21T08:17:48;94777.50;;;28.15;21.52
21826;BME280;11075;47.944;11.776;2022-08-21T08:20:16;94768.59;;;27.76;22.21
21826;BME280;11075;47.944;11.776;2022-08-21T08:22:45;94765.72;;;28.45;21.72
21826;BME280;11075;47.944;11.776;2022-08-21T08:25:26;94759.41;;;28.45;21.64
21826;BME280;11075;47.944;11.776;2022-08-21T08:28:03;94731.16;;;28.99;22.34
21826;BME280;11075;47.944;11.776;2022-08-21T08:30:46;94748.69;;;29.73;21.55
21826;BME280;11075;47.944;11.776;2022-08-21T08:33:13;94736.59;;;26.68;22.59
21826;BME280;11075;47.944;11.776;2022-08-21T08:35:42;94755.84;;;27.44;21.45
21826;BME280;11075;47.944;11.776;2022-08-21T08:38:11;94740.56;;;28.40;21.83
21826;BME280;11075;47.944;11.776;2022-08-21T08:43:30;94741.72;;;28.20;21.87
21826;BME280;11075;47.944;11.776;2022-08-21T08:46:02;94774.72;;;29.48;19.87
21826;BME280;11075;47.944;11.776;2022-08-21T08:51:34;94744.47;;;28.20;20.97
21826;BME280;11075;47.944;11.776;2022-08-21T08:54:13;94770.59;;;28.72;20.09
21826;BME280;11075;47.944;11.776;2022-08-21T08:56:42;94777.72;;;29.23;19.50
21826;BME280;11075;47.944;11.776;2022-08-21T08:59:16;94759.75;;;29.36;20.40
21826;BME280;11075;47.944;11.776;2022-08-21T09:01:44;94761.66;;;29.67;19.87
21826;BME280;11075;47.944;11.776;2022-08-21T09:04:12;94729.63;;;28.05;21.63
21826;BME280;11075;47.944;11.776;2022-08-21T09:09:53;94781.28;;;30.60;18.12
21826;BME280;11075;47.944;11.776;2022-08-21T09:12:50;94754.78;;;30.41;19.72
21826;BME280;11075;47.944;11.776;2022-08-21T09:18:42;94742.38;;;29.72;20.36
21826;BME280;11075;47.944;11.776;2022-08-21T09:24:09;94751.41;;;31.21;19.66
21826;BME280;11075;47.944;11.776;2022-08-21T09:29:17;94772.56;;;28.94;18.79
21826;BME280;11075;47.944;11.776;2022-08-21T09:31:47;94728.69;;;27.65;21.42
21826;BME280;11075;47.944;11.776;2022-08-21T09:34:25;94793.31;;;31.65;17.47
21826;BME280;11075;47.944;11.776;2022-08-21T09:36:52;94751.47;;;28.56;19.26
21826;BME280;11075;47.944;11.776;2022-08-21T09:39:39;94739.69;;;30.75;19.43
21826;BME280;11075;47.944;11.776;2022-08-21T09:42:22;94740.72;;;29.07;19.63
21826;BME280;11075;47.944;11.776;2022-08-21T09:45:06;94779.44;;;31.56;17.59
21826;BME280;11075;47.944;11.776;2022-08-21T09:47:36;94764.00;;;27.60;19.31
21826;BME280;11075;47.944;11.776;2022-08-21T09:50:17;94741.78;;;29.01;19.59
21826;BME280;11075;47.944;11.776;2022-08-21T09:52:56;94763.84;;;31.02;17.96
21826;BME280;11075;47.944;11.776;2022-08-21T09:58:17;94739.13;;;28.88;19.62
21826;BME280;11075;47.944;11.776;2022-08-21T10:00:56;94755.66;;;29.10;18.65
21826;BME280;11075;47.944;11.776;2022-08-21T10:03:25;94734.41;;;29.07;19.02
21826;BME280;11075;47.944;11.776;2022-08-21T10:08:27;94727.88;;;28.51;19.42
21826;BME280;11075;47.944;11.776;2022-08-21T10:11:03;94711.13;;;28.02;20.20
21826;BME280;11075;47.944;11.776;2022-08-21T10:24:34;94712.34;;;27.23;21.34
21826;BME280;11075;47.944;11.776;2022-08-21T10:35:37;94698.78;;;32.74;19.71
21826;BME280;11075;47.944;11.776;2022-08-21T10:49:42;94773.91;;;30.39;15.95
21826;BME280;11075;47.944;11.776;2022-08-21T10:54:52;94785.81;;;31.95;15.06
21826;BME280;11075;47.944;11.776;2022-08-21T11:00:10;94759.47;;;26.94;17.70
21826;BME280;11075;47.944;11.776;2022-08-21T11:02:40;94735.00;;;27.87;18.53
21826;BME280;11075;47.944;11.776;2022-08-21T11:05:14;94723.28;;;28.58;18.22
21826;BME280;11075;47.944;11.776;2022-08-21T11:07:55;94715.75;;;30.35;18.17
21826;BME280;11075;47.944;11.776;2022-08-21T11:10:50;94712.13;;;29.38;18.42
21826;BME280;11075;47.944;11.776;2022-08-21T11:16:26;94734.94;;;33.39;16.17
21826;BME280;11075;47.944;11.776;2022-08-21T11:29:49;94715.66;;;31.67;17.42
21826;BME280;11075;47.944;11.776;2022-08-21T11:46:25;94721.59;;;30.47;16.31
21826;BME280;11075;47.944;11.776;2022-08-21T11:51:40;94713.84;;;31.17;15.85
21826;BME280;11075;47.944;11.776;2022-08-21T11:54:20;94724.91;;;31.74;15.89
21826;BME280;11075;47.944;11.776;2022-08-21T11:57:24;94715.91;;;30.32;16.07
21826;BME280;11075;47.944;11.776;2022-08-21T12:00:10;94712.88;;;28.09;16.83
21826;BME280;11075;47.944;11.776;2022-08-21T12:02:45;94699.22;;;27.71;18.19
21826;BME280;11075;47.944;11.776;2022-08-21T12:05:33;94661.88;;;29.36;18.72
21826;BME280;11075;47.944;11.776;2022-08-21T12:10:40;94631.19;;;29.21;20.59
21826;BME280;11075;47.944;11.776;2022-08-21T12:13:24;94649.72;;;27.51;20.55
21826;BME280;11075;47.944;11.776;2022-08-21T12:16:15;94638.97;;;28.28;20.87
21826;BME280;11075;47.944;11.776;2022-08-21T12:18:43;94650.00;;;29.17;19.39
21826;BME280;11075;47.944;11.776;2022-08-21T12:21:30;94707.97;;;32.95;16.30
21826;BME280;11075;47.944;11.776;2022-08-21T12:24:02;94667.81;;;30.17;18.33
21826;BME280;11075;47.944;11.776;2022-08-21T12:31:56;94692.38;;;34.16;15.74
21826;BME280;11075;47.944;11.776;2022-08-21T12:34:30;94684.88;;;31.71;16.53
21826;BME280;11075;47.944;11.776;2022-08-21T12:37:28;94674.63;;;32.07;16.61
21826;BME280;11075;47.944;11.776;2022-08-21T12:39:59;94669.72;;;30.76;17.47
21826;BME280;11075;47.944;11.776;2022-08-21T12:42:42;94649.84;;;33.08;17.29
21826;BME280;11075;47.944;11.776;2022-08-21T12:45:37;94650.13;;;31.28;17.84
21826;BME280;11075;47.944;11.776;2022-08-21T12:48:18;94648.88;;;30.48;17.54
21826;BME280;11075;47.944;11.776;2022-08-21T12:50:51;94654.44;;;32.12;17.15
21826;BME280;11075;47.944;11.776;2022-08-21T12:56:14;94667.22;;;29.03;16.76
21826;BME280;11075;47.944;11.776;2022-08-21T12:58:46;94655.56;;;28.59;17.16
21826;BME280;11075;47.944;11.776;2022-08-21T13:01:39;94643.78;;;28.36;17.91
21826;BME280;11075;47.944;11.776;2022-08-21T13:04:14;94634.75;;;29.58;18.03
21826;BME280;11075;47.944;11.776;2022-08-21T13:06:46;94618.22;;;29.64;18.43
21826;BME280;11075;47.944;11.776;2022-08-21T13:09:16;94634.88;;;27.57;17.96
21826;BME280;11075;47.944;11.776;2022-08-21T13:11:47;94625.19;;;29.68;17.89
21826;BME280;11075;47.944;11.776;2022-08-21T13:14:41;94626.97;;;30.41;17.58
21826;BME280;11075;47.944;11.776;2022-08-21T13:17:18;94644.28;;;31.40;16.22
21826;BME280;11075;47.944;11.776;2022-08-21T13:20:01;94642.91;;;31.75;16.93
21826;BME280;11075;47.944;11.776;2022-08-21T13:22:29;94647.22;;;31.22;16.35
21826;BME280;11075;47.944;11.776;2022-08-21T13:25:01;94655.84;;;31.00;16.59
21826;BME280;11075;47.944;11.776;2022-08-21T13:27:33;94604.19;;;28.76;18.79
21826;BME280;11075;47.944;11.776;2022-08-21T13:30:13;94589.91;;;27.97;19.00
21826;BME280;11075;47.944;11.776;2022-08-21T13:32:43;94624.94;;;30.74;17.00
21826;BME280;11075;47.944;11.776;2022-08-21T13:35:17;94596.53;;;30.13;18.79
21826;BME280;11075;47.944;11.776;2022-08-21T13:37:47;94597.34;;;30.38;18.47
21826;BME280;11075;47.944;11.776;2022-08-21T13:40:38;94647.03;;;31.94;15.65
21826;BME280;11075;47.944;11.776;2022-08-21T13:43:12;94639.22;;;29.37;16.35
21826;BME280;11075;47.944;11.776;2022-08-21T13:45:51;94624.78;;;30.12;17.02
21826;BME280;11075;47.944;11.776;2022-08-21T13:48:19;94633.16;;;30.36;16.21
21826;BME280;11075;47.944;11.776;2022-08-21T13:50:46;94615.16;;;29.71;17.09
21826;BME280;11075;47.944;11.776;2022-08-21T13:55:52;94597.31;;;28.99;17.89
21826;BME280;11075;47.944;11.776;2022-08-21T14:00:53;94594.50;;;28.80;18.79
21826;BME280;11075;47.944;11.776;2022-08-21T14:03:35;94610.13;;;31.01;17.04
21826;BME280;11075;47.944;11.776;2022-08-21T14:06:35;94605.09;;;31.97;16.95
21826;BME280;11075;47.944;11.776;2022-08-21T14:11:55;94598.50;;;32.45;17.15
21826;BME280;11075;47.944;11.776;2022-08-21T14:14:26;94607.78;;;32.56;16.78
21826;BME280;11075;47.944;11.776;2022-08-21T14:16:59;94602.84;;;32.31;16.83
21826;BME280;11075;47.944;11.776;2022-08-21T14:19:36;94612.19;;;31.84;16.77
21826;BME280;11075;47.944;11.776;2022-08-21T14:24:59;94592.84;;;32.24;17.28
21826;BME280;11075;47.944;11.776;2022-08-21T14:27:29;94604.88;;;31.18;16.63
21826;BME280;11075;47.944;11.776;2022-08-21T14:32:59;94628.28;;;30.88;15.90
21826;BME280;11075;47.944;11.776;2022-08-21T14:35:26;94596.38;;;31.22;16.77
21826;BME280;11075;47.944;11.776;2022-08-21T14:37:55;94617.56;;;31.87;16.04
21826;BME280;11075;47.944;11.776;2022-08-21T14:40:23;94638.84;;;32.49;14.40
21826;BME280;11075;47.944;11.776;2022-08-21T14:42:51;94584.84;;;31.67;16.95
21826;BME280;11075;47.944;11.776;2022-08-21T14:45:26;94585.13;;;31.84;16.44
21826;BME280;11075;47.944;11.776;2022-08-21T14:47:54;94589.19;;;29.92;17.03
21826;BME280;11075;47.944;11.776;2022-08-21T14:50:21;94607.53;;;32.75;15.37
21826;BME280;11075;47.944;11.776;2022-08-21T14:52:49;94598.94;;;31.93;15.85
21826;BME280;11075;47.944;11.776;2022-08-21T14:55:17;94571.19;;;29.78;17.88
21826;BME280;11075;47.944;11.776;2022-08-21T14:57:47;94560.63;;;28.67;19.08
21826;BME280;11075;47.944;11.776;2022-08-21T15:00:17;94577.25;;;31.83;17.00
21826;BME280;11075;47.944;11.776;2022-08-21T15:02:46;94574.31;;;28.71;18.08
21826;BME280;11075;47.944;11.776;2022-08-21T15:05:15;94582.06;;;32.32;16.71